Time,TemperatureF,DewpointF,PressureIn,WindDirection,WindDirectionDegrees,WindSpeedMPH,WindSpeedGustMPH,Humidity,HourlyPrecipIn,Conditions,Clouds,dailyrainin,SolarRadiationWatts/m^2,SoftwareType,DateUTC
2013-01-21 00:02:00,16.7,-1.0,29.94,SSW,203,1.0,1.0,45,0.00,,,0.02,0,Wunderground v.1.15,2013-01-21 05:02:00,
2013-01-21 00:11:00,16.5,-1.7,29.94,East,94,1.0,6.0,44,0.00,,,0.02,0,Wunderground v.1.15,2013-01-21 05:11:00,
2013-01-21 00:17:00,16.5,-0.7,29.94,NNE,24,1.0,6.0,46,0.00,,,0.02,0,Wunderground v.1.15,2013-01-21 05:17:00,
2013-01-21 00:21:00,16.5,-1.2,29.94,ESE,119,1.0,1.0,45,0.00,,,0.02,0,Wunderground v.1.15,2013-01-21 05:21:00,
2013-01-21 00:26:00,16.4,-0.8,29.94,ESE,119,0.0,6.0,46,0.00,,,0.02,0,Wunderground v.1.15,2013-01-21 05:26:00,
2013-01-21 00:32:00,16.4,-0.8,29.94,ESE,120,0.0,5.0,46,0.00,,,0.02,0,Wunderground v.1.15,2013-01-21 05:32:00,
2013-01-21 00:41:00,16.2,-1.0,29.95,ESE,108,1.0,5.0,46,0.00,,,0.02,0,Wunderground v.1.15,2013-01-21 05:41:00,
2013-01-21 00:46:00,16.1,-2.0,29.95,WNW,297,1.0,5.0,44,0.00,,,0.02,0,Wunderground v.1.15,2013-01-21 05:46:00,
2013-01-21 00:56:00,16.1,-2.5,29.95,West,274,1.0,5.0,43,0.00,,,0.02,0,Wunderground v.1.15,2013-01-21 05:56:00,
2013-01-21 01:07:00,15.9,-2.2,29.95,SW,214,1.0,6.0,44,0.00,,,0.02,0,Wunderground v.1.15,2013-01-21 06:07:00,
2013-01-21 01:12:00,15.7,-1.9,29.95,SW,218,0.0,6.0,45,0.00,,,0.02,0,Wunderground v.1.15,2013-01-21 06:12:00,
2013-01-21 01:21:00,15.7,-2.4,29.95,West,261,0.0,6.0,44,0.00,,,0.02,0,Wunderground v.1.15,2013-01-21 06:21:00,
2013-01-21 01:27:00,15.6,-2.0,29.95,West,261,0.0,6.0,45,0.00,,,0.00,0,Wunderground v.1.15,2013-01-21 06:27:00,
2013-01-21 01:36:00,15.2,-2.4,29.95,WSW,255,0.0,5.0,45,0.00,,,0.00,0,Wunderground v.1.15,2013-01-21 06:36:00,
2013-01-21 01:47:00,15.2,-2.4,29.96,NNE,20,1.0,5.0,45,0.00,,,0.00,0,Wunderground v.1.15,2013-01-21 06:47:00,
2013-01-21 01:52:00,15.2,-2.8,29.96,West,259,0.0,5.0,44,0.00,,,0.00,0,Wunderground v.1.15,2013-01-21 06:52:00,
2013-01-21 02:01:00,15.2,-2.8,29.96,West,269,0.0,5.0,44,0.00,,,0.00,0,Wunderground v.1.15,2013-01-21 07:01:00,
2013-01-21 02:11:00,15.1,-3.4,29.96,SE,124,1.0,1.0,43,0.00,,,0.00,0,Wunderground v.1.15,2013-01-21 07:11:00,
2013-01-21 02:21:00,14.9,-3.6,29.96,ESE,122,0.0,5.0,43,0.00,,,0.00,0,Wunderground v.1.15,2013-01-21 07:21:00,
2013-01-21 02:27:00,14.9,-4.1,29.97,ENE,57,1.0,5.0,42,0.00,,,0.00,0,Wunderground v.1.15,2013-01-21 07:27:00,
2013-01-21 02:32:00,14.9,-4.6,29.97,SE,146,1.0,10.0,41,0.00,,,0.00,0,Wunderground v.1.15,2013-01-21 07:32:00,
2013-01-21 02:41:00,14.8,-4.7,29.96,East,84,1.0,1.0,41,0.00,,,0.00,0,Wunderground v.1.15,2013-01-21 07:41:00,
2013-01-21 02:47:00,14.8,-4.7,29.96,ENE,58,1.0,10.0,41,0.00,,,0.00,0,Wunderground v.1.15,2013-01-21 07:47:00,
2013-01-21 02:57:00,14.6,-3.9,29.96,ESE,110,1.0,10.0,43,0.00,,,0.00,0,Wunderground v.1.15,2013-01-21 07:57:00,
2013-01-21 03:06:00,14.3,-3.7,29.96,ESE,106,0.0,7.0,44,0.00,,,0.00,0,Wunderground v.1.15,2013-01-21 08:06:00,
2013-01-21 03:12:00,14.3,-3.7,29.97,ESE,106,0.0,7.0,44,0.00,,,0.00,0,Wunderground v.1.15,2013-01-21 08:12:00,
2013-01-21 03:21:00,14.1,-3.9,29.97,ESE,106,0.0,7.0,44,0.00,,,0.00,0,Wunderground v.1.15,2013-01-21 08:21:00,
2013-01-21 03:26:00,14.1,-3.9,29.96,SW,234,0.0,7.0,44,0.00,,,0.00,0,Wunderground v.1.15,2013-01-21 08:26:00,
2013-01-21 03:36:00,14.0,-3.9,29.96,SSW,195,0.0,4.0,44,0.00,,,0.00,0,Wunderground v.1.15,2013-01-21 08:36:00,
2013-01-21 03:47:00,13.8,-3.2,29.96,SSW,195,0.0,4.0,46,0.00,,,0.00,0,Wunderground v.1.15,2013-01-21 08:47:00,
2013-01-21 03:56:00,13.6,-2.9,29.97,SSW,196,0.0,4.0,47,0.00,,,0.00,0,Wunderground v.1.15,2013-01-21 08:56:00,
2013-01-21 04:01:00,13.5,-2.6,29.97,SSW,195,0.0,4.0,48,0.00,,,0.00,0,Wunderground v.1.15,2013-01-21 09:01:00,
2013-01-21 04:07:00,13.3,-1.5,29.97,SSW,196,0.0,4.0,51,0.00,,,0.00,0,Wunderground v.1.15,2013-01-21 09:07:00,
2013-01-21 04:17:00,12.8,-0.7,29.97,SSW,200,0.0,4.0,54,0.00,,,0.00,0,Wunderground v.1.15,2013-01-21 09:17:00,
2013-01-21 04:27:00,12.3,0.7,29.98,West,260,0.0,4.0,59,0.00,,,0.00,0,Wunderground v.1.15,2013-01-21 09:27:00,
2013-01-21 04:36:00,11.6,1.1,29.98,West,260,0.0,4.0,62,0.00,,,0.00,0,Wunderground v.1.15,2013-01-21 09:36:00,
2013-01-21 04:46:00,11.2,1.4,29.97,West,261,1.0,4.0,64,0.00,,,0.00,0,Wunderground v.1.15,2013-01-21 09:46:00,
2013-01-21 04:52:00,11.1,1.3,29.97,West,261,1.0,1.0,64,0.00,,,0.00,0,Wunderground v.1.15,2013-01-21 09:52:00,
2013-01-21 05:01:00,10.7,1.2,29.97,SW,236,0.0,3.0,65,0.00,,,0.00,0,Wunderground v.1.15,2013-01-21 10:01:00,
2013-01-21 05:11:00,10.4,1.3,29.97,SW,236,0.0,3.0,66,0.00,,,0.00,0,Wunderground v.1.15,2013-01-21 10:11:00,
2013-01-21 05:21:00,10.2,1.4,29.97,SW,236,0.0,3.0,67,0.00,,,0.00,0,Wunderground v.1.15,2013-01-21 10:21:00,
2013-01-21 05:27:00,10.0,1.2,29.97,WSW,258,1.0,3.0,67,0.00,,,0.00,0,Wunderground v.1.15,2013-01-21 10:27:00,
2013-01-21 05:36:00,9.9,1.4,29.97,SW,218,1.0,4.0,68,0.00,,,0.00,0,Wunderground v.1.15,2013-01-21 10:36:00,
2013-01-21 05:46:00,9.5,1.4,29.97,SW,218,1.0,4.0,69,0.00,,,0.00,0,Wunderground v.1.15,2013-01-21 10:46:00,
2013-01-21 05:51:00,9.3,1.2,29.97,SW,218,1.0,1.0,69,0.00,,,0.00,0,Wunderground v.1.15,2013-01-21 10:51:00,
2013-01-21 05:57:00,9.2,1.1,29.98,SW,222,0.0,3.0,69,0.00,,,0.00,0,Wunderground v.1.15,2013-01-21 10:57:00,
2013-01-21 06:07:00,9.0,1.2,29.98,SW,222,0.0,6.0,70,0.00,,,0.00,0,Wunderground v.1.15,2013-01-21 11:07:00,
2013-01-21 06:17:00,8.8,1.0,29.99,SW,222,0.0,6.0,70,0.00,,,0.00,0,Wunderground v.1.15,2013-01-21 11:17:00,
2013-01-21 06:27:00,8.6,0.8,30.00,SW,222,0.0,6.0,70,0.00,,,0.00,0,Wunderground v.1.15,2013-01-21 11:27:00,
2013-01-21 06:37:00,8.6,1.1,30.00,SW,222,0.0,3.0,71,0.00,,,0.00,0,Wunderground v.1.15,2013-01-21 11:37:00,
2013-01-21 06:47:00,8.3,0.8,30.00,SW,222,0.0,3.0,71,0.00,,,0.00,0,Wunderground v.1.15,2013-01-21 11:47:00,
2013-01-21 06:56:00,8.3,0.8,30.01,SW,222,0.0,3.0,71,0.00,,,0.00,0,Wunderground v.1.15,2013-01-21 11:56:00,
2013-01-21 07:07:00,8.4,0.9,30.01,SW,222,0.0,3.0,71,0.00,,,0.00,0,Wunderground v.1.15,2013-01-21 12:07:00,
2013-01-21 07:16:00,8.8,1.6,30.01,SW,222,1.0,3.0,72,0.00,,,0.00,0,Wunderground v.1.15,2013-01-21 12:16:00,
2013-01-21 07:26:00,9.0,1.5,30.01,SW,222,0.0,3.0,71,0.00,,,0.00,5,Wunderground v.1.15,2013-01-21 12:26:00,
2013-01-21 07:36:00,9.2,1.4,30.01,WSW,242,1.0,3.0,70,0.00,,,0.00,12,Wunderground v.1.15,2013-01-21 12:36:00,
2013-01-21 07:46:00,9.2,1.4,30.02,WSW,243,1.0,3.0,70,0.00,,,0.00,11,Wunderground v.1.15,2013-01-21 12:46:00,
2013-01-21 07:56:00,9.2,1.4,30.02,WSW,243,0.0,3.0,70,0.00,,,0.00,14,Wunderground v.1.15,2013-01-21 12:56:00,
2013-01-21 08:01:00,9.2,1.1,30.02,WSW,243,0.0,3.0,69,0.00,,,0.00,19,Wunderground v.1.15,2013-01-21 13:01:00,
2013-01-21 08:11:00,9.2,1.1,30.02,WSW,258,1.0,1.0,69,0.00,,,0.00,58,Wunderground v.1.15,2013-01-21 13:11:00,
2013-01-21 08:21:00,9.5,0.7,30.02,West,269,1.0,3.0,67,0.00,,,0.00,63,Wunderground v.1.15,2013-01-21 13:21:00,
2013-01-21 08:26:00,9.9,1.4,30.02,West,269,1.0,3.0,68,0.00,,,0.00,67,Wunderground v.1.15,2013-01-21 13:26:00,
2013-01-21 08:36:00,10.5,1.7,30.02,West,269,0.0,4.0,67,0.00,,,0.00,70,Wunderground v.1.15,2013-01-21 13:36:00,
2013-01-21 08:41:00,10.9,1.8,30.02,West,269,0.0,4.0,66,0.00,,,0.00,81,Wunderground v.1.15,2013-01-21 13:41:00,
2013-01-21 08:51:00,11.7,1.9,30.02,West,269,0.0,4.0,64,0.00,,,0.00,98,Wunderground v.1.15,2013-01-21 13:51:00,
2013-01-21 09:01:00,12.3,1.4,30.02,West,269,0.0,2.0,61,0.00,,,0.00,97,Wunderground v.1.15,2013-01-21 14:01:00,
2013-01-21 09:11:00,12.9,2.3,30.03,West,269,0.0,2.0,62,0.00,,,0.00,104,Wunderground v.1.15,2013-01-21 14:11:00,
2013-01-21 09:21:00,13.6,2.3,30.03,West,269,0.0,2.0,60,0.00,,,0.00,116,Wunderground v.1.15,2013-01-21 14:21:00,
2013-01-21 09:26:00,14.0,2.3,30.03,South,191,0.0,2.0,59,0.00,,,0.00,121,Wunderground v.1.15,2013-01-21 14:26:00,
2013-01-21 09:36:00,14.3,1.8,30.03,East,98,1.0,3.0,57,0.00,,,0.00,135,Wunderground v.1.15,2013-01-21 14:36:00,
2013-01-21 09:41:00,14.6,2.1,30.03,East,90,1.0,1.0,57,0.00,,,0.00,134,Wunderground v.1.15,2013-01-21 14:41:00,
2013-01-21 09:51:00,15.1,2.6,30.03,East,86,0.0,3.0,57,0.00,,,0.00,142,Wunderground v.1.15,2013-01-21 14:51:00,
2013-01-21 10:01:00,15.6,2.7,30.03,East,86,0.0,4.0,56,0.00,,,0.00,146,Wunderground v.1.15,2013-01-21 15:01:00,
2013-01-21 10:11:00,15.6,1.5,30.03,East,87,0.0,4.0,53,0.00,,,0.00,172,Wunderground v.1.15,2013-01-21 15:11:00,
2013-01-21 10:21:00,15.9,1.4,30.03,East,87,1.0,1.0,52,0.00,,,0.00,172,Wunderground v.1.15,2013-01-21 15:21:00,
2013-01-21 10:31:00,16.2,-0.5,30.03,East,81,1.0,4.0,47,0.00,,,0.00,167,Wunderground v.1.15,2013-01-21 15:31:00,
2013-01-21 10:41:00,16.5,0.6,30.03,East,79,0.0,4.0,49,0.00,,,0.00,179,Wunderground v.1.15,2013-01-21 15:41:00,
2013-01-21 10:51:00,16.9,-0.3,30.03,East,79,1.0,1.0,46,0.00,,,0.00,193,Wunderground v.1.15,2013-01-21 15:51:00,
2013-01-21 11:01:00,17.2,0.4,30.02,East,79,1.0,1.0,47,0.00,,,0.00,183,Wunderground v.1.15,2013-01-21 16:01:00,
2013-01-21 11:11:00,17.8,0.0,30.00,East,80,0.0,3.0,45,0.00,,,0.00,225,Wunderground v.1.15,2013-01-21 16:11:00,
2013-01-21 11:21:00,18.6,1.2,30.00,East,80,0.0,3.0,46,0.00,,,0.00,202,Wunderground v.1.15,2013-01-21 16:21:00,
2013-01-21 11:26:00,18.9,0.5,29.99,East,80,0.0,3.0,44,0.00,,,0.00,253,Wunderground v.1.15,2013-01-21 16:26:00,
2013-01-21 11:36:00,18.9,1.5,29.99,East,80,0.0,3.0,46,0.00,,,0.00,290,Wunderground v.1.15,2013-01-21 16:36:00,
2013-01-21 11:46:00,19.4,0.5,29.98,East,80,0.0,3.0,43,0.00,,,0.00,396,Wunderground v.1.15,2013-01-21 16:46:00,
2013-01-21 11:51:00,20.2,1.2,29.98,East,80,0.0,3.0,43,0.00,,,0.00,380,Wunderground v.1.15,2013-01-21 16:51:00,
2013-01-21 12:01:00,21.1,1.0,29.96,East,80,0.0,3.0,41,0.00,,,0.00,297,Wunderground v.1.15,2013-01-21 17:01:00,
2013-01-21 12:11:00,20.8,1.8,29.95,East,80,0.0,3.0,43,0.00,,,0.00,232,Wunderground v.1.15,2013-01-21 17:11:00,
2013-01-21 12:21:00,20.5,1.0,29.95,East,81,0.0,3.0,42,0.00,,,0.00,237,Wunderground v.1.15,2013-01-21 17:21:00,
2013-01-21 12:31:00,20.5,2.0,29.94,East,88,1.0,1.0,44,0.00,,,0.00,211,Wunderground v.1.15,2013-01-21 17:31:00,
2013-01-21 12:41:00,19.9,-0.6,29.93,East,86,0.0,4.0,40,0.00,,,0.00,255,Wunderground v.1.15,2013-01-21 17:41:00,
2013-01-21 12:51:00,20.2,1.2,29.93,East,86,0.0,4.0,43,0.00,,,0.00,262,Wunderground v.1.15,2013-01-21 17:51:00,
2013-01-21 13:01:00,20.2,-0.3,29.92,East,86,0.0,3.0,40,0.00,,,0.00,260,Wunderground v.1.15,2013-01-21 18:01:00,
2013-01-21 13:11:00,20.0,1.1,29.92,East,86,0.0,3.0,43,0.00,,,0.00,178,Wunderground v.1.15,2013-01-21 18:11:00,
2013-01-21 13:21:00,20.0,1.1,29.92,East,86,0.0,3.0,43,0.00,,,0.00,155,Wunderground v.1.15,2013-01-21 18:21:00,
2013-01-21 16:26:00,19.9,5.5,29.88,SSE,149,0.0,3.0,53,0.00,,,0.00,9,Wunderground v.1.15,2013-01-21 21:26:00,
2013-01-21 16:36:00,19.5,5.5,29.88,SSE,149,0.0,3.0,54,0.00,,,0.00,7,Wunderground v.1.15,2013-01-21 21:36:00,
2013-01-21 16:46:00,19.2,6.1,29.88,SSE,149,0.0,1.0,56,0.00,,,0.00,0,Wunderground v.1.15,2013-01-21 21:46:00,
2013-01-21 16:51:00,19.2,6.1,29.88,SSE,149,0.0,1.0,56,0.00,,,0.00,0,Wunderground v.1.15,2013-01-21 21:51:00,
2013-01-21 17:01:00,18.9,6.2,29.88,SSE,149,0.0,1.0,57,0.00,,,0.00,0,Wunderground v.1.15,2013-01-21 22:01:00,
2013-01-21 17:11:00,18.9,6.5,29.88,SSE,149,0.0,1.0,58,0.00,,,0.00,0,Wunderground v.1.15,2013-01-21 22:11:00,
2013-01-21 17:21:00,18.8,7.6,29.89,SSE,149,0.0,1.0,61,0.00,,,0.00,0,Wunderground v.1.15,2013-01-21 22:21:00,
2013-01-21 17:26:00,18.9,8.0,29.89,SSE,149,0.0,1.0,62,0.00,,,0.00,0,Wunderground v.1.15,2013-01-21 22:26:00,
2013-01-21 17:36:00,18.8,8.3,29.88,SSE,149,0.0,2.0,63,0.00,,,0.00,0,Wunderground v.1.15,2013-01-21 22:36:00,
2013-01-21 17:41:00,18.8,8.6,29.88,SSE,149,0.0,2.0,64,0.00,,,0.00,0,Wunderground v.1.15,2013-01-21 22:41:00,
2013-01-21 17:51:00,18.8,8.6,29.89,SSE,149,0.0,2.0,64,0.00,,,0.00,0,Wunderground v.1.15,2013-01-21 22:51:00,
2013-01-21 18:01:00,18.6,8.8,29.88,SSE,149,0.0,0.0,65,0.00,,,0.00,0,Wunderground v.1.15,2013-01-21 23:01:00,
2013-01-21 18:06:00,18.6,9.1,29.88,SSE,149,0.0,0.0,66,0.00,,,0.00,0,Wunderground v.1.15,2013-01-21 23:06:00,
2013-01-21 18:16:00,18.4,9.3,29.88,SSE,149,0.0,0.0,67,0.00,,,0.00,0,Wunderground v.1.15,2013-01-21 23:16:00,
2013-01-21 18:26:00,18.4,9.3,29.88,SSE,149,0.0,0.0,67,0.00,,,0.00,0,Wunderground v.1.15,2013-01-21 23:26:00,
2013-01-21 18:36:00,18.0,8.9,29.89,SSE,149,0.0,2.0,67,0.00,,,0.00,0,Wunderground v.1.15,2013-01-21 23:36:00,
2013-01-21 18:46:00,17.5,8.1,29.90,SSE,149,0.0,1.0,66,0.00,,,0.00,0,Wunderground v.1.15,2013-01-21 23:46:00,
2013-01-21 18:56:00,17.0,7.9,29.90,SSE,149,0.0,1.0,67,0.00,,,0.00,0,Wunderground v.1.15,2013-01-21 23:56:00,
2013-01-21 19:01:00,16.9,8.2,29.90,SSE,149,0.0,3.0,68,0.00,,,0.00,0,Wunderground v.1.15,2013-01-22 00:01:00,
2013-01-21 19:06:00,16.5,8.1,29.90,SSE,149,0.0,3.0,69,0.00,,,0.00,0,Wunderground v.1.15,2013-01-22 00:06:00,
2013-01-21 19:16:00,16.1,8.0,29.89,SSE,149,0.0,3.0,70,0.00,,,0.00,0,Wunderground v.1.15,2013-01-22 00:16:00,
2013-01-21 19:26:00,15.6,8.2,29.89,SSE,149,0.0,3.0,72,0.00,,,0.00,0,Wunderground v.1.15,2013-01-22 00:26:00,
2013-01-21 19:36:00,15.2,8.1,29.88,SE,146,0.0,2.0,73,0.00,,,0.00,0,Wunderground v.1.15,2013-01-22 00:36:00,
2013-01-21 19:41:00,15.2,8.1,29.88,SE,146,0.0,2.0,73,0.00,,,0.00,0,Wunderground v.1.15,2013-01-22 00:41:00,
2013-01-21 19:51:00,15.1,8.0,29.88,SE,146,0.0,2.0,73,0.00,,,0.00,0,Wunderground v.1.15,2013-01-22 00:51:00,
2013-01-21 19:56:00,14.9,8.1,29.88,SE,146,0.0,2.0,74,0.00,,,0.00,0,Wunderground v.1.15,2013-01-22 00:56:00,
2013-01-21 20:06:00,14.9,8.1,29.88,SE,146,0.0,3.0,74,0.00,,,0.00,0,Wunderground v.1.15,2013-01-22 01:06:00,
2013-01-21 20:16:00,14.6,8.1,29.88,SE,146,0.0,3.0,75,0.00,,,0.00,0,Wunderground v.1.15,2013-01-22 01:16:00,
2013-01-21 20:21:00,14.6,8.1,29.88,SE,146,0.0,3.0,75,0.00,,,0.00,0,Wunderground v.1.15,2013-01-22 01:21:00,
2013-01-21 20:31:00,14.6,8.1,29.87,SE,146,0.0,1.0,75,0.00,,,0.00,0,Wunderground v.1.15,2013-01-22 01:31:00,
2013-01-21 20:41:00,14.4,8.2,29.87,SE,146,0.0,1.0,76,0.00,,,0.00,0,Wunderground v.1.15,2013-01-22 01:41:00,
2013-01-21 20:51:00,14.3,8.1,29.87,SE,146,0.0,1.0,76,0.00,,,0.00,0,Wunderground v.1.15,2013-01-22 01:51:00,
2013-01-21 21:01:00,14.0,7.5,29.86,ESE,106,0.0,4.0,75,0.00,,,0.00,0,Wunderground v.1.15,2013-01-22 02:01:00,
2013-01-21 21:06:00,13.8,7.6,29.86,ESE,106,0.0,4.0,76,0.00,,,0.00,0,Wunderground v.1.15,2013-01-22 02:06:00,
2013-01-21 21:16:00,13.8,7.6,29.86,ESE,106,0.0,4.0,76,0.00,,,0.00,0,Wunderground v.1.15,2013-01-22 02:16:00,
2013-01-21 21:21:00,13.8,7.6,29.86,ESE,106,0.0,4.0,76,0.00,,,0.00,0,Wunderground v.1.15,2013-01-22 02:21:00,
2013-01-21 21:31:00,13.6,7.4,29.85,ESE,106,0.0,3.0,76,0.00,,,0.00,0,Wunderground v.1.15,2013-01-22 02:31:00,
2013-01-21 21:36:00,13.5,7.3,29.85,ESE,106,0.0,3.0,76,0.00,,,0.00,0,Wunderground v.1.15,2013-01-22 02:36:00,
2013-01-21 21:46:00,13.5,7.6,29.85,ESE,108,0.0,3.0,77,0.00,,,0.00,0,Wunderground v.1.15,2013-01-22 02:46:00,
2013-01-21 21:51:00,13.1,7.2,29.85,ESE,108,0.0,3.0,77,0.00,,,0.00,0,Wunderground v.1.15,2013-01-22 02:51:00,
2013-01-21 22:01:00,12.9,7.0,29.84,SSW,211,0.0,3.0,77,0.00,,,0.00,0,Wunderground v.1.15,2013-01-22 03:01:00,
2013-01-21 22:06:00,12.8,6.9,29.84,SE,139,0.0,3.0,77,0.00,,,0.00,0,Wunderground v.1.15,2013-01-22 03:06:00,
2013-01-21 22:15:00,12.8,7.2,29.83,SE,139,0.0,3.0,78,0.00,,,0.00,0,Wunderground v.1.15,2013-01-22 03:15:00,
2013-01-21 22:21:00,12.6,6.8,29.83,SE,139,0.0,3.0,77,0.00,,,0.00,0,Wunderground v.1.15,2013-01-22 03:21:00,
2013-01-21 22:31:00,12.4,6.8,29.83,SE,139,0.0,3.0,78,0.00,,,0.00,0,Wunderground v.1.15,2013-01-22 03:31:00,
2013-01-21 22:36:00,12.4,6.8,29.83,SE,139,0.0,3.0,78,0.00,,,0.00,0,Wunderground v.1.15,2013-01-22 03:36:00,
2013-01-21 22:46:00,12.4,6.6,29.82,SE,139,0.0,3.0,77,0.00,,,0.00,0,Wunderground v.1.15,2013-01-22 03:46:00,
2013-01-21 22:51:00,12.3,6.5,29.82,SE,139,0.0,3.0,77,0.00,,,0.00,0,Wunderground v.1.15,2013-01-22 03:51:00,
2013-01-21 23:01:00,12.1,6.3,29.82,SE,139,0.0,1.0,77,0.00,,,0.00,0,Wunderground v.1.15,2013-01-22 04:01:00,
2013-01-21 23:06:00,11.9,6.1,29.82,SE,139,0.0,1.0,77,0.00,,,0.00,0,Wunderground v.1.15,2013-01-22 04:06:00,
2013-01-21 23:16:00,11.6,5.8,29.81,NW,307,0.0,2.0,77,0.00,,,0.00,0,Wunderground v.1.15,2013-01-22 04:16:00,
2013-01-21 23:21:00,11.1,5.0,29.81,NW,306,0.0,1.0,76,0.00,,,0.00,0,Wunderground v.1.15,2013-01-22 04:21:00,
2013-01-21 23:31:00,11.1,5.3,29.80,West,269,0.0,3.0,77,0.00,,,0.00,0,Wunderground v.1.15,2013-01-22 04:31:00,
2013-01-21 23:36:00,10.9,5.1,29.80,SW,228,0.0,3.0,77,0.00,,,0.00,0,Wunderground v.1.15,2013-01-22 04:36:00,
2013-01-21 23:46:00,10.7,4.9,29.79,SW,228,0.0,3.0,77,0.00,,,0.00,0,Wunderground v.1.15,2013-01-22 04:46:00,
2013-01-21 23:51:00,10.7,4.9,29.79,SW,228,0.0,3.0,77,0.00,,,0.00,0,Wunderground v.1.15,2013-01-22 04:51:00,